sensor_id;sensor_type;location;lat;lon;timestamp;temperature;humidity
23717;DHT22;22094;52.130;5.598;2022-12-07T00:01:16;2.60;99.90
23717;DHT22;22094;52.130;5.598;2022-12-07T00:03:44;2.60;99.90
23717;DHT22;22094;52.130;5.598;2022-12-07T00:06:11;2.90;99.90
23717;DHT22;22094;52.130;5.598;2022-12-07T00:08:38;2.70;99.90
23717;DHT22;22094;52.130;5.598;2022-12-07T00:11:18;2.90;99.90
23717;DHT22;22094;52.130;5.598;2022-12-07T00:13:44;2.90;99.90
23717;DHT22;22094;52.130;5.598;2022-12-07T00:16:15;2.80;99.90
23717;DHT22;22094;52.130;5.598;2022-12-07T00:18:41;2.80;99.90
23717;DHT22;22094;52.130;5.598;2022-12-07T00:21:13;2.80;99.90
23717;DHT22;22094;52.130;5.598;2022-12-07T00:23:41;2.80;99.90
23717;DHT22;22094;52.130;5.598;2022-12-07T00:26:09;2.70;99.90
23717;DHT22;22094;52.130;5.598;2022-12-07T00:28:35;2.60;99.90
23717;DHT22;22094;52.130;5.598;2022-12-07T00:31:06;2.50;99.90
23717;DHT22;22094;52.130;5.598;2022-12-07T00:33:33;2.40;99.90
23717;DHT22;22094;52.130;5.598;2022-12-07T00:35:59;2.40;99.90
23717;DHT22;22094;52.130;5.598;2022-12-07T00:38:28;2.30;99.90
23717;DHT22;22094;52.130;5.598;2022-12-07T00:40:59;2.20;99.90
23717;DHT22;22094;52.130;5.598;2022-12-07T00:43:25;2.30;99.90
23717;DHT22;22094;52.130;5.598;2022-12-07T00:45:52;2.20;99.90
23717;DHT22;22094;52.130;5.598;2022-12-07T00:48:17;2.20;99.90
23717;DHT22;22094;52.130;5.598;2022-12-07T00:50:43;2.40;99.90
23717;DHT22;22094;52.130;5.598;2022-12-07T00:53:08;2.40;99.90
23717;DHT22;22094;52.130;5.598;2022-12-07T00:55:35;2.30;99.90
23717;DHT22;22094;52.130;5.598;2022-12-07T00:58:00;2.40;99.90
23717;DHT22;22094;52.130;5.598;2022-12-07T01:00:26;2.30;99.90
23717;DHT22;22094;52.130;5.598;2022-12-07T01:02:52;2.20;99.90
23717;DHT22;22094;52.130;5.598;2022-12-07T01:05:17;2.20;99.90
23717;DHT22;22094;52.130;5.598;2022-12-07T01:07:43;2.20;99.90
23717;DHT22;22094;52.130;5.598;2022-12-07T01:10:09;2.20;99.90
23717;DHT22;22094;52.130;5.598;2022-12-07T01:12:35;2.10;99.90
23717;DHT22;22094;52.130;5.598;2022-12-07T01:15:00;2.20;99.90
23717;DHT22;22094;52.130;5.598;2022-12-07T01:17:26;2.20;99.90
23717;DHT22;22094;52.130;5.598;2022-12-07T01:19:51;2.20;99.90
23717;DHT22;22094;52.130;5.598;2022-12-07T01:22:17;2.20;99.90
23717;DHT22;22094;52.130;5.598;2022-12-07T01:24:42;2.20;99.90
23717;DHT22;22094;52.130;5.598;2022-12-07T01:27:08;2.20;99.90
23717;DHT22;22094;52.130;5.598;2022-12-07T01:29:33;2.20;99.90
23717;DHT22;22094;52.130;5.598;2022-12-07T01:31:59;2.10;99.90
23717;DHT22;22094;52.130;5.598;2022-12-07T01:34:25;2.00;99.90
23717;DHT22;22094;52.130;5.598;2022-12-07T01:36:50;1.80;99.90
23717;DHT22;22094;52.130;5.598;2022-12-07T01:39:16;1.70;99.90
23717;DHT22;22094;52.130;5.598;2022-12-07T01:41:41;1.70;99.90
23717;DHT22;22094;52.130;5.598;2022-12-07T01:44:28;1.80;99.90
23717;DHT22;22094;52.130;5.598;2022-12-07T01:47:03;2.40;99.90
23717;DHT22;22094;52.130;5.598;2022-12-07T01:49:39;1.90;99.90
23717;DHT22;22094;52.130;5.598;2022-12-07T01:52:27;2.00;99.90
23717;DHT22;22094;52.130;5.598;2022-12-07T01:55:02;1.90;99.90
23717;DHT22;22094;52.130;5.598;2022-12-07T01:57:29;1.90;99.90
23717;DHT22;22094;52.130;5.598;2022-12-07T01:59:56;1.80;99.90
23717;DHT22;22094;52.130;5.598;2022-12-07T02:02:26;1.80;99.90
23717;DHT22;22094;52.130;5.598;2022-12-07T02:04:53;1.70;99.90
23717;DHT22;22094;52.130;5.598;2022-12-07T02:07:20;1.60;99.90
23717;DHT22;22094;52.130;5.598;2022-12-07T02:09:46;1.80;99.90
23717;DHT22;22094;52.130;5.598;2022-12-07T02:12:12;1.70;99.90
23717;DHT22;22094;52.130;5.598;2022-12-07T02:14:38;1.90;99.90
23717;DHT22;22094;52.130;5.598;2022-12-07T02:20:13;2.00;99.90
23717;DHT22;22094;52.130;5.598;2022-12-07T02:28:47;1.90;99.90
23717;DHT22;22094;52.130;5.598;2022-12-07T02:31:17;2.10;99.90
23717;DHT22;22094;52.130;5.598;2022-12-07T02:33:49;2.20;99.90
23717;DHT22;22094;52.130;5.598;2022-12-07T02:36:21;2.10;99.90
23717;DHT22;22094;52.130;5.598;2022-12-07T02:38:59;2.10;99.90
23717;DHT22;22094;52.130;5.598;2022-12-07T02:41:29;2.30;99.90
23717;DHT22;22094;52.130;5.598;2022-12-07T02:43:59;2.40;99.90
23717;DHT22;22094;52.130;5.598;2022-12-07T02:46:37;2.60;99.90
23717;DHT22;22094;52.130;5.598;2022-12-07T02:49:25;2.30;99.90
23717;DHT22;22094;52.130;5.598;2022-12-07T02:51:57;2.40;99.90
23717;DHT22;22094;52.130;5.598;2022-12-07T02:54:29;2.40;99.90
23717;DHT22;22094;52.130;5.598;2022-12-07T03:00:00;2.40;99.90
23717;DHT22;22094;52.130;5.598;2022-12-07T03:05:21;2.50;99.90
23717;DHT22;22094;52.130;5.598;2022-12-07T03:14:01;2.30;99.90
23717;DHT22;22094;52.130;5.598;2022-12-07T03:16:59;2.30;99.90
23717;DHT22;22094;52.130;5.598;2022-12-07T03:19:26;2.30;99.90
23717;DHT22;22094;52.130;5.598;2022-12-07T03:22:11;2.20;99.90
23717;DHT22;22094;52.130;5.598;2022-12-07T03:24:43;2.20;99.90
23717;DHT22;22094;52.130;5.598;2022-12-07T03:27:58;2.20;99.90
23717;DHT22;22094;52.130;5.598;2022-12-07T03:32:37;2.40;99.90
23717;DHT22;22094;52.130;5.598;2022-12-07T03:35:11;2.40;99.90
23717;DHT22;22094;52.130;5.598;2022-12-07T03:37:59;2.40;99.90
23717;DHT22;22094;52.130;5.598;2022-12-07T03:40:40;2.40;99.90
23717;DHT22;22094;52.130;5.598;2022-12-07T03:43:06;2.40;99.90
23717;DHT22;22094;52.130;5.598;2022-12-07T03:45:44;2.40;99.90
23717;DHT22;22094;52.130;5.598;2022-12-07T03:49:07;2.40;99.90
23717;DHT22;22094;52.130;5.598;2022-12-07T03:51:28;2.40;99.90
23717;DHT22;22094;52.130;5.598;2022-12-07T03:54:07;2.40;99.90
23717;DHT22;22094;52.130;5.598;2022-12-07T03:56:35;2.30;99.90
23717;DHT22;22094;52.130;5.598;2022-12-07T03:59:01;2.30;99.90
23717;DHT22;22094;52.130;5.598;2022-12-07T04:01:27;2.30;99.90
23717;DHT22;22094;52.130;5.598;2022-12-07T04:03:53;2.20;99.90
23717;DHT22;22094;52.130;5.598;2022-12-07T04:06:18;2.20;99.90
23717;DHT22;22094;52.130;5.598;2022-12-07T04:08:44;2.30;99.90
23717;DHT22;22094;52.130;5.598;2022-12-07T04:11:10;2.40;99.90
23717;DHT22;22094;52.130;5.598;2022-12-07T04:13:35;2.30;99.90
23717;DHT22;22094;52.130;5.598;2022-12-07T04:16:21;2.30;99.90
23717;DHT22;22094;52.130;5.598;2022-12-07T04:18:46;2.30;99.90
23717;DHT22;22094;52.130;5.598;2022-12-07T04:21:12;2.20;99.90
23717;DHT22;22094;52.130;5.598;2022-12-07T04:23:37;2.20;99.90
23717;DHT22;22094;52.130;5.598;2022-12-07T04:26:03;2.30;99.90
23717;DHT22;22094;52.130;5.598;2022-12-07T04:28:29;2.40;99.90
23717;DHT22;22094;52.130;5.598;2022-12-07T04:30:54;2.40;99.90
23717;DHT22;22094;52.130;5.598;2022-12-07T04:33:20;2.40;99.90
23717;DHT22;22094;52.130;5.598;2022-12-07T04:35:45;2.50;99.90
23717;DHT22;22094;52.130;5.598;2022-12-07T04:38:11;2.40;99.90
23717;DHT22;22094;52.130;5.598;2022-12-07T04:40:36;2.40;99.90
23717;DHT22;22094;52.130;5.598;2022-12-07T04:43:02;2.30;99.90
23717;DHT22;22094;52.130;5.598;2022-12-07T04:45:27;2.30;99.90
23717;DHT22;22094;52.130;5.598;2022-12-07T04:47:53;2.20;99.90
23717;DHT22;22094;52.130;5.598;2022-12-07T04:50:19;2.20;99.90
23717;DHT22;22094;52.130;5.598;2022-12-07T04:52:44;2.20;99.90
23717;DHT22;22094;52.130;5.598;2022-12-07T04:55:10;2.30;99.90
23717;DHT22;22094;52.130;5.598;2022-12-07T04:57:35;2.40;99.90
23717;DHT22;22094;52.130;5.598;2022-12-07T05:00:01;2.20;99.90
23717;DHT22;22094;52.130;5.598;2022-12-07T05:02:26;2.10;99.90
23717;DHT22;22094;52.130;5.598;2022-12-07T05:04:52;2.20;99.90
23717;DHT22;22094;52.130;5.598;2022-12-07T05:07:17;2.20;99.90
23717;DHT22;22094;52.130;5.598;2022-12-07T05:09:43;2.30;99.90
23717;DHT22;22094;52.130;5.598;2022-12-07T05:12:09;2.30;99.90
23717;DHT22;22094;52.130;5.598;2022-12-07T05:14:34;2.70;99.90
23717;DHT22;22094;52.130;5.598;2022-12-07T05:17:00;2.20;99.90
23717;DHT22;22094;52.130;5.598;2022-12-07T05:19:26;2.10;99.90
23717;DHT22;22094;52.130;5.598;2022-12-07T05:21:52;2.10;99.90
23717;DHT22;22094;52.130;5.598;2022-12-07T05:24:17;2.00;99.90
23717;DHT22;22094;52.130;5.598;2022-12-07T05:26:44;1.90;99.90
23717;DHT22;22094;52.130;5.598;2022-12-07T05:29:12;1.80;99.90
23717;DHT22;22094;52.130;5.598;2022-12-07T05:31:38;1.80;99.90
23717;DHT22;22094;52.130;5.598;2022-12-07T05:34:04;1.70;99.90
23717;DHT22;22094;52.130;5.598;2022-12-07T05:36:29;1.90;99.90
23717;DHT22;22094;52.130;5.598;2022-12-07T05:38:57;1.80;99.90
23717;DHT22;22094;52.130;5.598;2022-12-07T05:41:23;1.70;99.90
23717;DHT22;22094;52.130;5.598;2022-12-07T05:44:08;1.60;99.90
23717;DHT22;22094;52.130;5.598;2022-12-07T05:46:33;1.60;99.90
23717;DHT22;22094;52.130;5.598;2022-12-07T05:48:59;1.60;99.90
23717;DHT22;22094;52.130;5.598;2022-12-07T05:51:25;1.70;99.90
23717;DHT22;22094;52.130;5.598;2022-12-07T05:53:51;2.00;99.90
23717;DHT22;22094;52.130;5.598;2022-12-07T05:56:17;1.70;99.90
23717;DHT22;22094;52.130;5.598;2022-12-07T05:58:42;1.70;99.90
23717;DHT22;22094;52.130;5.598;2022-12-07T06:01:27;1.80;99.90
23717;DHT22;22094;52.130;5.598;2022-12-07T06:03:53;1.90;99.90
23717;DHT22;22094;52.130;5.598;2022-12-07T06:06:18;1.90;99.90
23717;DHT22;22094;52.130;5.598;2022-12-07T06:08:44;1.90;99.90
23717;DHT22;22094;52.130;5.598;2022-12-07T06:11:09;1.90;99.90
23717;DHT22;22094;52.130;5.598;2022-12-07T06:14:04;2.50;99.90
23717;DHT22;22094;52.130;5.598;2022-12-07T06:16:29;2.00;99.90
23717;DHT22;22094;52.130;5.598;2022-12-07T06:18:55;1.90;99.90
23717;DHT22;22094;52.130;5.598;2022-12-07T06:21:21;2.00;99.90
23717;DHT22;22094;52.130;5.598;2022-12-07T06:23:47;2.00;99.90
23717;DHT22;22094;52.130;5.598;2022-12-07T06:26:13;2.10;99.90
23717;DHT22;22094;52.130;5.598;2022-12-07T06:28:39;2.10;99.90
23717;DHT22;22094;52.130;5.598;2022-12-07T06:31:06;2.00;99.90
23717;DHT22;22094;52.130;5.598;2022-12-07T06:33:31;2.00;99.90
23717;DHT22;22094;52.130;5.598;2022-12-07T06:36:08;2.00;99.90
23717;DHT22;22094;52.130;5.598;2022-12-07T06:38:34;2.00;99.90
23717;DHT22;22094;52.130;5.598;2022-12-07T06:41:00;2.00;99.90
23717;DHT22;22094;52.130;5.598;2022-12-07T06:43:25;1.90;99.90
23717;DHT22;22094;52.130;5.598;2022-12-07T06:45:51;1.90;99.90
23717;DHT22;22094;52.130;5.598;2022-12-07T06:48:17;2.00;99.90
23717;DHT22;22094;52.130;5.598;2022-12-07T06:50:46;2.00;99.90
23717;DHT22;22094;52.130;5.598;2022-12-07T06:53:12;2.00;99.90
23717;DHT22;22094;52.130;5.598;2022-12-07T06:55:37;2.00;99.90
23717;DHT22;22094;52.130;5.598;2022-12-07T06:58:03;1.90;99.90
23717;DHT22;22094;52.130;5.598;2022-12-07T07:00:29;1.90;99.90
23717;DHT22;22094;52.130;5.598;2022-12-07T07:02:54;1.90;99.90
23717;DHT22;22094;52.130;5.598;2022-12-07T07:05:20;1.90;99.90
23717;DHT22;22094;52.130;5.598;2022-12-07T07:07:51;1.90;99.90
23717;DHT22;22094;52.130;5.598;2022-12-07T07:10:17;1.90;99.90
23717;DHT22;22094;52.130;5.598;2022-12-07T07:12:42;1.80;99.90
23717;DHT22;22094;52.130;5.598;2022-12-07T07:15:08;1.70;99.90
23717;DHT22;22094;52.130;5.598;2022-12-07T07:17:34;1.70;99.90
23717;DHT22;22094;52.130;5.598;2022-12-07T07:20:00;1.70;99.90
23717;DHT22;22094;52.130;5.598;2022-12-07T07:22:26;1.70;99.90
23717;DHT22;22094;52.130;5.598;2022-12-07T07:24:51;1.60;99.90
23717;DHT22;22094;52.130;5.598;2022-12-07T07:27:17;1.60;99.90
23717;DHT22;22094;52.130;5.598;2022-12-07T07:29:42;1.60;99.90
23717;DHT22;22094;52.130;5.598;2022-12-07T07:32:08;1.60;99.90
23717;DHT22;22094;52.130;5.598;2022-12-07T07:34:33;1.60;99.90
23717;DHT22;22094;52.130;5.598;2022-12-07T07:36:59;1.50;99.90
23717;DHT22;22094;52.130;5.598;2022-12-07T07:39:25;1.50;99.90
23717;DHT22;22094;52.130;5.598;2022-12-07T07:41:50;1.50;99.90
23717;DHT22;22094;52.130;5.598;2022-12-07T07:44:16;1.50;99.90
23717;DHT22;22094;52.130;5.598;2022-12-07T07:46:42;1.60;99.90
23717;DHT22;22094;52.130;5.598;2022-12-07T07:49:09;1.70;99.90
23717;DHT22;22094;52.130;5.598;2022-12-07T07:51:35;1.60;99.90
23717;DHT22;22094;52.130;5.598;2022-12-07T07:54:00;1.70;99.90
23717;DHT22;22094;52.130;5.598;2022-12-07T07:56:26;1.70;99.90
23717;DHT22;22094;52.130;5.598;2022-12-07T07:58:52;1.70;99.90
23717;DHT22;22094;52.130;5.598;2022-12-07T08:01:18;1.80;99.90
23717;DHT22;22094;52.130;5.598;2022-12-07T08:03:45;1.90;99.90
23717;DHT22;22094;52.130;5.598;2022-12-07T08:06:11;2.00;99.90
23717;DHT22;22094;52.130;5.598;2022-12-07T08:08:37;1.90;99.90
23717;DHT22;22094;52.130;5.598;2022-12-07T08:11:05;1.90;99.90
23717;DHT22;22094;52.130;5.598;2022-12-07T08:13:31;1.80;99.90
23717;DHT22;22094;52.130;5.598;2022-12-07T08:15:57;2.00;99.90
23717;DHT22;22094;52.130;5.598;2022-12-07T08:18:22;1.90;99.90
23717;DHT22;22094;52.130;5.598;2022-12-07T08:20:48;1.90;99.90
23717;DHT22;22094;52.130;5.598;2022-12-07T08:23:14;1.90;99.90
23717;DHT22;22094;52.130;5.598;2022-12-07T08:25:39;1.90;99.90
23717;DHT22;22094;52.130;5.598;2022-12-07T08:28:05;-0.60;99.90
23717;DHT22;22094;52.130;5.598;2022-12-07T08:30:31;2.00;99.90
23717;DHT22;22094;52.130;5.598;2022-12-07T08:32:57;2.30;99.90
23717;DHT22;22094;52.130;5.598;2022-12-07T08:35:23;2.10;99.90
23717;DHT22;22094;52.130;5.598;2022-12-07T08:37:49;2.20;99.90
23717;DHT22;22094;52.130;5.598;2022-12-07T08:40:14;3.10;99.90
23717;DHT22;22094;52.130;5.598;2022-12-07T08:42:44;2.60;99.90
23717;DHT22;22094;52.130;5.598;2022-12-07T08:45:15;1.00;99.90
23717;DHT22;22094;52.130;5.598;2022-12-07T08:48:02;2.80;99.90
23717;DHT22;22094;52.130;5.598;2022-12-07T08:50:29;3.10;99.90
23717;DHT22;22094;52.130;5.598;2022-12-07T08:52:58;3.20;99.90
23717;DHT22;22094;52.130;5.598;2022-12-07T08:55:24;3.30;99.90
23717;DHT22;22094;52.130;5.598;2022-12-07T08:57:50;3.30;99.90
23717;DHT22;22094;52.130;5.598;2022-12-07T09:00:16;3.60;99.90
23717;DHT22;22094;52.130;5.598;2022-12-07T09:02:45;1.40;99.90
23717;DHT22;22094;52.130;5.598;2022-12-07T09:05:11;3.30;99.90
23717;DHT22;22094;52.130;5.598;2022-12-07T09:07:40;3.20;99.90
23717;DHT22;22094;52.130;5.598;2022-12-07T09:10:06;1.20;99.90
23717;DHT22;22094;52.130;5.598;2022-12-07T09:12:32;0.20;99.90
23717;DHT22;22094;52.130;5.598;2022-12-07T09:14:57;3.30;99.90
23717;DHT22;22094;52.130;5.598;2022-12-07T09:17:23;3.30;99.90
23717;DHT22;22094;52.130;5.598;2022-12-07T09:19:49;3.20;99.90
23717;DHT22;22094;52.130;5.598;2022-12-07T09:22:15;3.40;99.90
23717;DHT22;22094;52.130;5.598;2022-12-07T09:24:40;3.50;99.90
23717;DHT22;22094;52.130;5.598;2022-12-07T09:29:32;4.70;99.90
23717;DHT22;22094;52.130;5.598;2022-12-07T09:31:58;4.30;99.90
23717;DHT22;22094;52.130;5.598;2022-12-07T09:34:23;7.50;99.90
23717;DHT22;22094;52.130;5.598;2022-12-07T09:39:15;5.20;99.90
23717;DHT22;22094;52.130;5.598;2022-12-07T09:41:43;4.50;99.90
23717;DHT22;22094;52.130;5.598;2022-12-07T09:44:14;4.50;99.90
23717;DHT22;22094;52.130;5.598;2022-12-07T09:46:44;4.40;99.90
23717;DHT22;22094;52.130;5.598;2022-12-07T09:49:13;4.40;99.90
23717;DHT22;22094;52.130;5.598;2022-12-07T09:51:40;4.50;99.90
23717;DHT22;22094;52.130;5.598;2022-12-07T09:54:06;4.30;99.90
23717;DHT22;22094;52.130;5.598;2022-12-07T09:56:31;4.20;99.90
23717;DHT22;22094;52.130;5.598;2022-12-07T09:59:01;4.20;99.90
23717;DHT22;22094;52.130;5.598;2022-12-07T10:01:30;3.60;99.90
23717;DHT22;22094;52.130;5.598;2022-12-07T10:04:16;4.30;99.90
23717;DHT22;22094;52.130;5.598;2022-12-07T10:06:42;4.30;99.90
23717;DHT22;22094;52.130;5.598;2022-12-07T10:09:12;4.30;99.90
23717;DHT22;22094;52.130;5.598;2022-12-07T10:14:29;4.30;99.90
23717;DHT22;22094;52.130;5.598;2022-12-07T10:19:32;4.40;99.90
23717;DHT22;22094;52.130;5.598;2022-12-07T10:22:14;4.30;99.90
23717;DHT22;22094;52.130;5.598;2022-12-07T10:24:42;4.30;99.90
23717;DHT22;22094;52.130;5.598;2022-12-07T10:27:30;4.40;99.90
23717;DHT22;22094;52.130;5.598;2022-12-07T10:29:57;4.50;99.90
23717;DHT22;22094;52.130;5.598;2022-12-07T10:32:31;5.60;99.90
23717;DHT22;22094;52.130;5.598;2022-12-07T10:37:47;4.70;99.90
23717;DHT22;22094;52.130;5.598;2022-12-07T10:40:34;7.90;99.90
23717;DHT22;22094;52.130;5.598;2022-12-07T10:48:33;5.00;99.90
23717;DHT22;22094;52.130;5.598;2022-12-07T10:51:24;5.10;99.90
23717;DHT22;22094;52.130;5.598;2022-12-07T10:54:38;5.20;99.90
23717;DHT22;22094;52.130;5.598;2022-12-07T10:57:22;5.40;99.90
23717;DHT22;22094;52.130;5.598;2022-12-07T11:03:45;5.80;99.90
23717;DHT22;22094;52.130;5.598;2022-12-07T11:11:38;7.70;99.90
23717;DHT22;22094;52.130;5.598;2022-12-07T11:14:31;6.60;99.90
23717;DHT22;22094;52.130;5.598;2022-12-07T11:17:10;8.50;99.90
23717;DHT22;22094;52.130;5.598;2022-12-07T11:20:11;6.70;99.90
23717;DHT22;22094;52.130;5.598;2022-12-07T11:25:32;5.10;99.90
23717;DHT22;22094;52.130;5.598;2022-12-07T11:31:18;6.00;99.90
23717;DHT22;22094;52.130;5.598;2022-12-07T11:33:53;7.50;99.90
23717;DHT22;22094;52.130;5.598;2022-12-07T11:38:55;5.70;99.90
23717;DHT22;22094;52.130;5.598;2022-12-07T11:41:33;6.30;99.90
23717;DHT22;22094;52.130;5.598;2022-12-07T11:44:25;7.50;99.90
23717;DHT22;22094;52.130;5.598;2022-12-07T11:50:05;6.00;99.90
23717;DHT22;22094;52.130;5.598;2022-12-07T11:52:52;6.00;99.90
23717;DHT22;22094;52.130;5.598;2022-12-07T11:57:59;6.90;99.90
23717;DHT22;22094;52.130;5.598;2022-12-07T12:00:27;9.10;99.90
23717;DHT22;22094;52.130;5.598;2022-12-07T12:03:09;7.50;99.90
23717;DHT22;22094;52.130;5.598;2022-12-07T12:05:36;7.70;99.90
23717;DHT22;22094;52.130;5.598;2022-12-07T12:08:18;7.30;99.90
23717;DHT22;22094;52.130;5.598;2022-12-07T12:11:00;9.30;99.90
23717;DHT22;22094;52.130;5.598;2022-12-07T12:16:32;7.50;99.90
23717;DHT22;22094;52.130;5.598;2022-12-07T12:21:49;9.20;99.90
23717;DHT22;22094;52.130;5.598;2022-12-07T12:24:26;7.20;99.90
23717;DHT22;22094;52.130;5.598;2022-12-07T12:29:55;7.00;99.90
23717;DHT22;22094;52.130;5.598;2022-12-07T12:32:36;6.70;99.90
23717;DHT22;22094;52.130;5.598;2022-12-07T12:35:32;9.90;99.90
23717;DHT22;22094;52.130;5.598;2022-12-07T12:38:24;7.20;99.90
23717;DHT22;22094;52.130;5.598;2022-12-07T12:43:46;6.60;99.90
23717;DHT22;22094;52.130;5.598;2022-12-07T12:49:35;7.30;99.90
23717;DHT22;22094;52.130;5.598;2022-12-07T12:57:33;8.40;99.90
23717;DHT22;22094;52.130;5.598;2022-12-07T13:00:21;8.90;99.90
23717;DHT22;22094;52.130;5.598;2022-12-07T13:02:55;8.80;99.90
23717;DHT22;22094;52.130;5.598;2022-12-07T13:05:29;8.60;99.90
23717;DHT22;22094;52.130;5.598;2022-12-07T13:23:33;6.50;99.90
23717;DHT22;22094;52.130;5.598;2022-12-07T13:26:09;5.80;99.90
23717;DHT22;22094;52.130;5.598;2022-12-07T13:28:40;3.00;99.90
23717;DHT22;22094;52.130;5.598;2022-12-07T13:34:04;2.20;99.90
23717;DHT22;22094;52.130;5.598;2022-12-07T13:36:33;5.30;99.90
23717;DHT22;22094;52.130;5.598;2022-12-07T13:41:42;4.90;99.90
23717;DHT22;22094;52.130;5.598;2022-12-07T13:44:13;6.10;99.90
23717;DHT22;22094;52.130;5.598;2022-12-07T13:47:17;7.30;99.90
23717;DHT22;22094;52.130;5.598;2022-12-07T13:49:49;4.90;99.90
23717;DHT22;22094;52.130;5.598;2022-12-07T13:52:27;5.00;99.90
23717;DHT22;22094;52.130;5.598;2022-12-07T13:55:14;5.10;99.90
23717;DHT22;22094;52.130;5.598;2022-12-07T13:57:41;5.00;99.90
23717;DHT22;22094;52.130;5.598;2022-12-07T14:00:24;3.10;99.90
23717;DHT22;22094;52.130;5.598;2022-12-07T14:03:01;6.20;99.90
23717;DHT22;22094;52.130;5.598;2022-12-07T14:05:32;5.50;99.90
23717;DHT22;22094;52.130;5.598;2022-12-07T14:08:05;5.50;99.90
23717;DHT22;22094;52.130;5.598;2022-12-07T14:10:37;5.40;99.90
23717;DHT22;22094;52.130;5.598;2022-12-07T14:15:52;3.20;99.90
23717;DHT22;22094;52.130;5.598;2022-12-07T14:21:15;5.50;99.90
23717;DHT22;22094;52.130;5.598;2022-12-07T14:23:41;3.70;99.90
23717;DHT22;22094;52.130;5.598;2022-12-07T14:26:12;5.60;99.90
23717;DHT22;22094;52.130;5.598;2022-12-07T14:28:40;5.50;99.90
23717;DHT22;22094;52.130;5.598;2022-12-07T14:31:13;5.40;99.90
23717;DHT22;22094;52.130;5.598;2022-12-07T14:33:39;5.40;99.90
23717;DHT22;22094;52.130;5.598;2022-12-07T14:36:05;5.60;99.90
23717;DHT22;22094;52.130;5.598;2022-12-07T14:38:31;5.50;99.90
23717;DHT22;22094;52.130;5.598;2022-12-07T14:46:09;5.40;99.90
23717;DHT22;22094;52.130;5.598;2022-12-07T14:48:34;5.30;99.90
23717;DHT22;22094;52.130;5.598;2022-12-07T14:51:00;5.40;99.90
23717;DHT22;22094;52.130;5.598;2022-12-07T14:53:33;2.70;99.90
23717;DHT22;22094;52.130;5.598;2022-12-07T14:56:00;5.10;99.90
23717;DHT22;22094;52.130;5.598;2022-12-07T14:58:25;5.10;99.90
23717;DHT22;22094;52.130;5.598;2022-12-07T15:00:51;5.40;99.90
23717;DHT22;22094;52.130;5.598;2022-12-07T15:03:17;4.90;99.90
23717;DHT22;22094;52.130;5.598;2022-12-07T15:05:42;4.90;99.90
23717;DHT22;22094;52.130;5.598;2022-12-07T15:08:14;4.90;99.90
23717;DHT22;22094;52.130;5.598;2022-12-07T15:10:40;4.80;99.90
23717;DHT22;22094;52.130;5.598;2022-12-07T15:13:06;4.70;99.90
23717;DHT22;22094;52.130;5.598;2022-12-07T15:15:52;4.80;99.90
23717;DHT22;22094;52.130;5.598;2022-12-07T15:18:18;4.80;99.90
23717;DHT22;22094;52.130;5.598;2022-12-07T15:20:44;4.80;99.90
23717;DHT22;22094;52.130;5.598;2022-12-07T15:23:11;4.80;99.90
23717;DHT22;22094;52.130;5.598;2022-12-07T15:25:36;5.00;99.90
23717;DHT22;22094;52.130;5.598;2022-12-07T15:28:05;5.00;99.90
23717;DHT22;22094;52.130;5.598;2022-12-07T15:30:30;5.00;99.90
23717;DHT22;22094;52.130;5.598;2022-12-07T15:32:56;5.00;99.90
23717;DHT22;22094;52.130;5.598;2022-12-07T15:35:22;5.00;99.90
23717;DHT22;22094;52.130;5.598;2022-12-07T15:37:47;5.00;99.90
23717;DHT22;22094;52.130;5.598;2022-12-07T15:40:13;5.10;99.90
23717;DHT22;22094;52.130;5.598;2022-12-07T15:42:39;5.10;99.90
23717;DHT22;22094;52.130;5.598;2022-12-07T15:45:06;5.00;99.90
23717;DHT22;22094;52.130;5.598;2022-12-07T15:47:38;5.00;99.90
23717;DHT22;22094;52.130;5.598;2022-12-07T15:50:05;5.00;99.90
23717;DHT22;22094;52.130;5.598;2022-12-07T15:52:32;5.00;99.90
23717;DHT22;22094;52.130;5.598;2022-12-07T15:54:58;4.90;99.90
23717;DHT22;22094;52.130;5.598;2022-12-07T15:57:27;4.80;99.90
23717;DHT22;22094;52.130;5.598;2022-12-07T15:59:52;4.70;99.90
23717;DHT22;22094;52.130;5.598;2022-12-07T16:02:19;4.70;99.90
23717;DHT22;22094;52.130;5.598;2022-12-07T16:04:44;5.10;99.90
23717;DHT22;22094;52.130;5.598;2022-12-07T16:07:10;4.70;99.90
23717;DHT22;22094;52.130;5.598;2022-12-07T16:09:37;4.60;99.90
23717;DHT22;22094;52.130;5.598;2022-12-07T16:12:04;4.50;99.90
23717;DHT22;22094;52.130;5.598;2022-12-07T16:14:29;4.50;99.90
23717;DHT22;22094;52.130;5.598;2022-12-07T16:16:57;4.40;99.90
23717;DHT22;22094;52.130;5.598;2022-12-07T16:19:23;4.30;99.90
23717;DHT22;22094;52.130;5.598;2022-12-07T16:21:48;4.30;99.90
23717;DHT22;22094;52.130;5.598;2022-12-07T16:24:14;4.40;99.90
23717;DHT22;22094;52.130;5.598;2022-12-07T16:26:40;4.30;99.90
23717;DHT22;22094;52.130;5.598;2022-12-07T16:29:06;4.30;99.90
23717;DHT22;22094;52.130;5.598;2022-12-07T16:31:31;4.30;99.90
23717;DHT22;22094;52.130;5.598;2022-12-07T16:33:58;4.30;99.90
23717;DHT22;22094;52.130;5.598;2022-12-07T16:36:24;4.40;99.90
23717;DHT22;22094;52.130;5.598;2022-12-07T16:38:51;4.50;99.90
23717;DHT22;22094;52.130;5.598;2022-12-07T16:41:16;4.10;99.90
23717;DHT22;22094;52.130;5.598;2022-12-07T16:43:43;4.10;99.90
23717;DHT22;22094;52.130;5.598;2022-12-07T16:46:09;4.10;99.90
23717;DHT22;22094;52.130;5.598;2022-12-07T16:48:36;4.10;99.90
23717;DHT22;22094;52.130;5.598;2022-12-07T16:51:04;4.00;99.90
23717;DHT22;22094;52.130;5.598;2022-12-07T16:53:31;4.10;99.90
23717;DHT22;22094;52.130;5.598;2022-12-07T16:55:56;4.00;99.90
23717;DHT22;22094;52.130;5.598;2022-12-07T16:58:22;4.00;99.90
23717;DHT22;22094;52.130;5.598;2022-12-07T17:00:47;3.90;99.90
23717;DHT22;22094;52.130;5.598;2022-12-07T17:03:14;3.90;99.90
23717;DHT22;22094;52.130;5.598;2022-12-07T17:05:41;3.90;99.90
23717;DHT22;22094;52.130;5.598;2022-12-07T17:08:08;3.90;99.90
23717;DHT22;22094;52.130;5.598;2022-12-07T17:10:36;3.90;99.90
23717;DHT22;22094;52.130;5.598;2022-12-07T17:13:03;3.80;99.90
23717;DHT22;22094;52.130;5.598;2022-12-07T17:16:03;3.80;99.90
23717;DHT22;22094;52.130;5.598;2022-12-07T17:18:31;3.80;99.90
23717;DHT22;22094;52.130;5.598;2022-12-07T17:21:08;3.80;99.90
23717;DHT22;22094;52.130;5.598;2022-12-07T17:23:35;3.90;99.90
23717;DHT22;22094;52.130;5.598;2022-12-07T17:26:09;3.90;99.90
23717;DHT22;22094;52.130;5.598;2022-12-07T17:28:35;3.90;99.90
23717;DHT22;22094;52.130;5.598;2022-12-07T17:31:04;3.90;99.90
23717;DHT22;22094;52.130;5.598;2022-12-07T17:33:31;4.00;99.90
23717;DHT22;22094;52.130;5.598;2022-12-07T17:35:57;3.90;99.90
23717;DHT22;22094;52.130;5.598;2022-12-07T17:38:22;4.00;99.90
23717;DHT22;22094;52.130;5.598;2022-12-07T17:40:48;3.90;99.90
23717;DHT22;22094;52.130;5.598;2022-12-07T17:43:13;3.90;99.90
23717;DHT22;22094;52.130;5.598;2022-12-07T17:45:39;3.90;99.90
23717;DHT22;22094;52.130;5.598;2022-12-07T17:48:05;3.90;99.90
23717;DHT22;22094;52.130;5.598;2022-12-07T17:50:30;3.90;99.90
23717;DHT22;22094;52.130;5.598;2022-12-07T17:53:15;3.90;99.90
23717;DHT22;22094;52.130;5.598;2022-12-07T17:55:40;3.90;99.90
23717;DHT22;22094;52.130;5.598;2022-12-07T17:58:06;3.90;99.90